createdAt,value
2023-05-14T00:00:17.731Z,1016.9
2023-05-14T00:02:17.703Z,1016.9
2023-05-14T00:04:17.784Z,1016.8
2023-05-14T00:06:18.069Z,1016.8
2023-05-14T00:08:18.093Z,1016.8
2023-05-14T00:10:17.707Z,1016.9
2023-05-14T00:12:17.744Z,1016.9
2023-05-14T00:14:17.757Z,1017
2023-05-14T00:16:18.933Z,1017.1
2023-05-14T00:18:17.666Z,1017.1
2023-05-14T00:20:17.635Z,1017.2
2023-05-14T00:22:19.096Z,1017.3
2023-05-14T00:24:23.239Z,1017.3
2023-05-14T00:26:17.603Z,1017.3
2023-05-14T00:28:18.823Z,1017.3
2023-05-14T00:30:17.728Z,1017.3
2023-05-14T00:32:17.720Z,1017.4
2023-05-14T00:34:20.566Z,1017.5
2023-05-14T00:36:17.807Z,1017.5
2023-05-14T00:38:17.693Z,1017.6
2023-05-14T00:40:17.636Z,1017.6
2023-05-14T00:42:17.615Z,1017.7
2023-05-14T00:44:18.628Z,1017.7
2023-05-14T00:46:17.677Z,1017.6
2023-05-14T00:48:17.694Z,1017.6
2023-05-14T00:50:25.407Z,1017.6
2023-05-14T00:52:17.565Z,1017.6
2023-05-14T00:54:17.834Z,1017.6
2023-05-14T00:56:17.601Z,1017.8
2023-05-14T00:58:29.464Z,1017.9
2023-05-14T01:00:17.709Z,1018
2023-05-14T01:02:17.549Z,1018.1
2023-05-14T01:04:17.651Z,1018.2
2023-05-14T01:06:17.741Z,1018.3
2023-05-14T01:08:17.647Z,1018.4
2023-05-14T01:10:17.604Z,1018.4
2023-05-14T01:12:23.214Z,1018.4
2023-05-14T01:14:20.521Z,1018.4
2023-05-14T01:16:17.697Z,1018.5
2023-05-14T01:18:17.796Z,1018.7
2023-05-14T01:20:17.534Z,1018.7
2023-05-14T01:22:17.642Z,1018.9
2023-05-14T01:24:17.551Z,1018.9
2023-05-14T01:26:17.532Z,1018.8
2023-05-14T01:28:17.575Z,1018.8
2023-05-14T01:30:17.559Z,1018.8
2023-05-14T01:32:17.693Z,1018.9
2023-05-14T01:34:20.000Z,1019
2023-05-14T01:36:17.547Z,1019.1
2023-05-14T01:38:17.773Z,1019.3
2023-05-14T01:40:17.740Z,1019.3
2023-05-14T01:42:17.721Z,1019.3
2023-05-14T01:44:18.842Z,1019.3
2023-05-14T01:46:22.140Z,1019.3
2023-05-14T01:48:18.654Z,1019.2
2023-05-14T01:50:17.588Z,1019.2
2023-05-14T01:52:17.547Z,1019.3
2023-05-14T01:54:17.594Z,1019.3
2023-05-14T01:56:19.035Z,1019.3
2023-05-14T01:58:17.516Z,1019.4
2023-05-14T02:00:17.482Z,1019.4
2023-05-14T02:02:17.540Z,1019.3
2023-05-14T02:04:18.267Z,1019.2
2023-05-14T02:06:17.501Z,1019.4
2023-05-14T02:08:17.528Z,1019.4
2023-05-14T02:10:17.815Z,1019.4
2023-05-14T02:12:17.545Z,1019.3
2023-05-14T02:14:18.863Z,1019.3
2023-05-14T02:16:17.504Z,1019.4
2023-05-14T02:18:17.484Z,1019.4
2023-05-14T02:20:17.609Z,1019.4
2023-05-14T02:22:17.588Z,1019.4
2023-05-14T02:24:17.519Z,1019.4
2023-05-14T02:26:17.563Z,1019.5
2023-05-14T02:28:17.480Z,1019.5
2023-05-14T02:30:19.112Z,1019.4
2023-05-14T02:32:17.472Z,1019.4
2023-05-14T02:34:17.611Z,1019.4
2023-05-14T02:36:17.426Z,1019.4
2023-05-14T02:38:17.648Z,1019.3
2023-05-14T02:40:17.510Z,1019.4
2023-05-14T02:42:17.535Z,1019.4
2023-05-14T02:44:17.386Z,1019.4
2023-05-14T02:46:17.514Z,1019.5
2023-05-14T02:48:17.422Z,1019.4
2023-05-14T02:50:17.454Z,1019.3
2023-05-14T02:52:18.920Z,1019.2
2023-05-14T02:54:19.119Z,1019.2
2023-05-14T02:56:17.675Z,1019.2
2023-05-14T02:58:17.572Z,1019.3
2023-05-14T03:00:18.528Z,1019.4
2023-05-14T03:02:17.506Z,1019.4
2023-05-14T03:04:17.340Z,1019.4
2023-05-14T03:06:17.410Z,1019.4
2023-05-14T03:08:17.539Z,1019.3
2023-05-14T03:10:17.323Z,1019.3
2023-05-14T03:12:17.370Z,1019.3
2023-05-14T03:14:17.340Z,1019.3
2023-05-14T03:16:17.466Z,1019.3
2023-05-14T03:18:17.441Z,1019.2
2023-05-14T03:20:17.358Z,1019.2
2023-05-14T03:22:17.455Z,1019.1
2023-05-14T03:24:17.322Z,1019.1
2023-05-14T03:26:17.358Z,1019.1
2023-05-14T03:28:17.401Z,1019.1
2023-05-14T03:30:17.304Z,1019.1
2023-05-14T03:32:17.560Z,1019
2023-05-14T03:34:17.459Z,1019
2023-05-14T03:36:17.285Z,1019.1
2023-05-14T03:38:17.310Z,1019.1
2023-05-14T03:40:17.361Z,1019.1
2023-05-14T03:42:17.322Z,1019
2023-05-14T03:44:17.302Z,1019
2023-05-14T03:46:17.343Z,1019
2023-05-14T03:48:17.481Z,1019.1
2023-05-14T03:50:18.915Z,1019
2023-05-14T03:52:17.526Z,1019
2023-05-14T03:54:17.395Z,1019.1
2023-05-14T03:56:17.432Z,1019.1
2023-05-14T03:58:17.601Z,1019.2
2023-05-14T04:00:17.334Z,1019.1
2023-05-14T04:02:21.578Z,1019.1
2023-05-14T04:04:18.711Z,1019.1
2023-05-14T04:06:21.470Z,1019.2
2023-05-14T04:08:17.527Z,1019.2
2023-05-14T04:10:17.397Z,1019.1
2023-05-14T04:12:17.327Z,1019.2
2023-05-14T04:14:17.578Z,1019.2
2023-05-14T04:16:18.500Z,1019.2
2023-05-14T04:18:17.292Z,1019.2
2023-05-14T04:20:17.281Z,1019.2
2023-05-14T04:22:17.395Z,1019.3
2023-05-14T04:24:17.274Z,1019.3
2023-05-14T04:26:17.242Z,1019.3
2023-05-14T04:28:17.270Z,1019.4
2023-05-14T04:30:17.232Z,1019.5
2023-05-14T04:32:17.228Z,1019.6
2023-05-14T04:34:18.756Z,1019.6
2023-05-14T04:36:17.272Z,1019.6
2023-05-14T04:38:17.422Z,1019.6
2023-05-14T04:40:17.323Z,1019.5
2023-05-14T04:42:17.267Z,1019.5
2023-05-14T04:44:17.261Z,1019.5
2023-05-14T04:46:17.285Z,1019.6
2023-05-14T04:48:17.213Z,1019.6
2023-05-14T04:50:17.235Z,1019.7
2023-05-14T04:52:17.229Z,1019.7
2023-05-14T04:54:17.403Z,1019.7
2023-05-14T04:56:17.253Z,1019.6
2023-05-14T04:58:17.201Z,1019.7
2023-05-14T05:00:17.270Z,1019.6
2023-05-14T05:02:17.334Z,1019.6
2023-05-14T05:04:17.357Z,1019.6
2023-05-14T05:06:17.260Z,1019.6
2023-05-14T05:08:17.225Z,1019.7
2023-05-14T05:10:18.391Z,1019.7
2023-05-14T05:12:17.272Z,1019.7
2023-05-14T05:14:17.350Z,1019.6
2023-05-14T05:16:17.228Z,1019.7
2023-05-14T05:18:18.290Z,1019.7
2023-05-14T05:20:17.236Z,1019.6
2023-05-14T05:22:18.774Z,1019.6
2023-05-14T05:24:17.238Z,1019.6
2023-05-14T05:26:17.236Z,1019.6
2023-05-14T05:28:17.294Z,1019.5
2023-05-14T05:30:18.190Z,1019.5
2023-05-14T05:32:17.424Z,1019.4
2023-05-14T05:34:17.199Z,1019.4
2023-05-14T05:36:17.240Z,1019.4
2023-05-14T05:38:17.216Z,1019.3
2023-05-14T05:40:17.214Z,1019.3
2023-05-14T05:42:17.283Z,1019.3
2023-05-14T05:44:17.244Z,1019.3
2023-05-14T05:46:17.182Z,1019.3
2023-05-14T05:48:17.188Z,1019.3
2023-05-14T05:50:18.420Z,1019.3
2023-05-14T05:52:17.246Z,1019.3
2023-05-14T05:54:17.168Z,1019.3
2023-05-14T05:56:17.133Z,1019.3
2023-05-14T05:58:17.123Z,1019.3
2023-05-14T06:00:17.151Z,1019.3
2023-05-14T06:02:17.203Z,1019.4
2023-05-14T06:04:17.151Z,1019.3
2023-05-14T06:06:17.168Z,1019.3
2023-05-14T06:08:17.192Z,1019.3
2023-05-14T06:10:17.181Z,1019.2
2023-05-14T06:12:17.270Z,1019.2
2023-05-14T06:14:18.286Z,1019.2
2023-05-14T06:16:17.398Z,1019.2
2023-05-14T06:18:17.149Z,1019.2
2023-05-14T06:20:17.117Z,1019.3
2023-05-14T06:22:17.168Z,1019.2
2023-05-14T06:24:17.274Z,1019.3
2023-05-14T06:26:18.170Z,1019.3
2023-05-14T06:28:17.158Z,1019.2
2023-05-14T06:30:21.815Z,1019.2
2023-05-14T06:32:17.449Z,1019.2
2023-05-14T06:34:17.152Z,1019.2
2023-05-14T06:36:21.508Z,1019.2
2023-05-14T06:38:17.206Z,1019.2
2023-05-14T06:40:17.169Z,1019.3
2023-05-14T06:42:17.254Z,1019.3
2023-05-14T06:44:21.620Z,1019.4
2023-05-14T06:46:17.293Z,1019.3
2023-05-14T06:48:17.246Z,1019.3
2023-05-14T06:50:17.127Z,1019.3
2023-05-14T06:52:17.128Z,1019.3
2023-05-14T06:54:17.085Z,1019.3
2023-05-14T06:56:17.106Z,1019.3
2023-05-14T06:58:17.081Z,1019.3
2023-05-14T07:00:17.160Z,1019.3
2023-05-14T07:02:17.106Z,1019.3
2023-05-14T07:04:17.148Z,1019.2
2023-05-14T07:06:17.063Z,1019.2
2023-05-14T07:08:17.175Z,1019.2
2023-05-14T07:10:17.049Z,1019.2
2023-05-14T07:12:17.074Z,1019.3
2023-05-14T07:14:17.065Z,1019.3
2023-05-14T07:16:17.049Z,1019.3
2023-05-14T07:18:17.148Z,1019.4
2023-05-14T07:20:17.219Z,1019.3
2023-05-14T07:22:17.275Z,1019.4
2023-05-14T07:24:17.085Z,1019.4
2023-05-14T07:26:17.039Z,1019.5
2023-05-14T07:28:17.067Z,1019.5
2023-05-14T07:30:17.086Z,1019.5
2023-05-14T07:32:17.051Z,1019.5
2023-05-14T07:34:17.043Z,1019.5
2023-05-14T07:36:17.047Z,1019.6
2023-05-14T07:38:17.358Z,1019.6
2023-05-14T07:40:17.195Z,1019.6
2023-05-14T07:42:28.239Z,1019.7
2023-05-14T07:44:17.051Z,1019.7
2023-05-14T07:46:17.076Z,1019.6
2023-05-14T07:48:17.114Z,1019.7
2023-05-14T07:50:17.134Z,1019.7
2023-05-14T07:52:17.243Z,1019.8
2023-05-14T07:54:17.042Z,1019.8
2023-05-14T07:56:17.284Z,1019.8
2023-05-14T07:58:17.020Z,1019.8
2023-05-14T08:00:16.996Z,1019.8
2023-05-14T08:02:17.335Z,1019.8
2023-05-14T08:04:17.231Z,1019.8
2023-05-14T08:06:17.049Z,1019.8
2023-05-14T08:08:17.030Z,1019.8
2023-05-14T08:10:17.022Z,1019.8
2023-05-14T08:12:17.011Z,1019.8
2023-05-14T08:14:17.009Z,1019.8
2023-05-14T08:16:17.114Z,1019.9
2023-05-14T08:18:17.118Z,1019.9
2023-05-14T08:20:17.057Z,1019.9
2023-05-14T08:22:17.027Z,1020
2023-05-14T08:24:17.003Z,1020
2023-05-14T08:26:17.018Z,1020
2023-05-14T08:28:17.008Z,1020
2023-05-14T08:30:16.976Z,1020
2023-05-14T08:32:23.092Z,1020
2023-05-14T08:34:16.988Z,1020.1
2023-05-14T08:36:16.977Z,1020.1
2023-05-14T08:38:16.950Z,1020.1
2023-05-14T08:40:17.024Z,1020.1
2023-05-14T08:42:16.968Z,1020.1
2023-05-14T08:44:16.976Z,1020.2
2023-05-14T08:46:16.972Z,1020.2
2023-05-14T08:48:17.100Z,1020.2
2023-05-14T08:50:16.968Z,1020.2
2023-05-14T08:52:16.990Z,1020.2
2023-05-14T08:54:17.004Z,1020.2
2023-05-14T08:56:17.154Z,1020.2
2023-05-14T08:58:17.985Z,1020.2
2023-05-14T09:00:16.933Z,1020.3
2023-05-14T09:02:16.981Z,1020.3
2023-05-14T09:04:17.018Z,1020.3
2023-05-14T09:06:16.924Z,1020.4
2023-05-14T09:08:16.957Z,1020.4
2023-05-14T09:10:16.944Z,1020.4
2023-05-14T09:12:17.174Z,1020.4
2023-05-14T09:14:17.073Z,1020.4
2023-05-14T09:16:16.938Z,1020.4
2023-05-14T09:18:16.990Z,1020.4
2023-05-14T09:20:16.930Z,1020.4
2023-05-14T09:22:16.932Z,1020.4
2023-05-14T09:24:16.971Z,1020.4
2023-05-14T09:26:17.023Z,1020.4
2023-05-14T09:28:21.262Z,1020.4
2023-05-14T09:30:16.902Z,1020.4
2023-05-14T09:32:18.336Z,1020.4
2023-05-14T09:34:16.926Z,1020.4
2023-05-14T09:36:17.054Z,1020.5
2023-05-14T09:38:16.939Z,1020.5
2023-05-14T09:40:16.995Z,1020.5
2023-05-14T09:42:16.908Z,1020.5
2023-05-14T09:44:16.955Z,1020.5
2023-05-14T09:46:17.009Z,1020.5
2023-05-14T09:48:16.996Z,1020.5
2023-05-14T09:50:16.882Z,1020.6
2023-05-14T09:52:17.017Z,1020.6
2023-05-14T09:54:18.491Z,1020.6
2023-05-14T09:56:16.967Z,1020.6
2023-05-14T09:58:17.025Z,1020.6
2023-05-14T10:00:19.521Z,1020.6
2023-05-14T10:02:16.945Z,1020.6
2023-05-14T10:04:16.946Z,1020.6
2023-05-14T10:06:16.933Z,1020.6
2023-05-14T10:08:18.483Z,1020.6
2023-05-14T10:10:17.071Z,1020.6
2023-05-14T10:12:16.933Z,1020.6
2023-05-14T10:14:17.057Z,1020.6
2023-05-14T10:16:16.961Z,1020.6
2023-05-14T10:18:16.986Z,1020.6
2023-05-14T10:20:16.873Z,1020.6
2023-05-14T10:22:16.914Z,1020.6
2023-05-14T10:24:16.864Z,1020.6
2023-05-14T10:26:16.906Z,1020.7
2023-05-14T10:28:16.924Z,1020.7
2023-05-14T10:30:16.842Z,1020.7
2023-05-14T10:32:17.093Z,1020.6
2023-05-14T10:34:17.014Z,1020.6
2023-05-14T10:36:18.013Z,1020.7
2023-05-14T10:38:19.220Z,1020.6
2023-05-14T10:40:16.913Z,1020.6
2023-05-14T10:42:16.995Z,1020.6
2023-05-14T10:44:17.017Z,1020.7
2023-05-14T10:46:16.966Z,1020.7
2023-05-14T10:48:16.884Z,1020.7
2023-05-14T10:50:18.079Z,1020.7
2023-05-14T10:52:17.000Z,1020.7
2023-05-14T10:54:16.886Z,1020.8
2023-05-14T10:56:18.173Z,1020.9
2023-05-14T10:58:16.799Z,1020.9
2023-05-14T11:00:16.850Z,1020.9
2023-05-14T11:02:16.982Z,1020.9
2023-05-14T11:04:16.971Z,1021
2023-05-14T11:06:16.956Z,1021
2023-05-14T11:08:18.228Z,1021.1
2023-05-14T11:10:16.924Z,1021.1
2023-05-14T11:12:16.950Z,1021.1
2023-05-14T11:14:17.830Z,1021.1
2023-05-14T11:16:23.127Z,1021.1
2023-05-14T11:18:17.008Z,1021.1
2023-05-14T11:20:16.930Z,1021
2023-05-14T11:22:16.843Z,1021.1
2023-05-14T11:24:16.944Z,1021.1
2023-05-14T11:26:17.895Z,1021.1
2023-05-14T11:28:18.069Z,1021.1
2023-05-14T11:30:16.911Z,1021.1
2023-05-14T11:32:16.947Z,1021.2
2023-05-14T11:34:16.915Z,1021.1
2023-05-14T11:36:19.520Z,1021.2
2023-05-14T11:38:17.940Z,1021.2
2023-05-14T11:40:17.871Z,1021.2
2023-05-14T11:42:18.354Z,1021.2
2023-05-14T11:44:16.824Z,1021.2
2023-05-14T11:46:16.932Z,1021.2
2023-05-14T11:48:16.796Z,1021.3
2023-05-14T11:50:18.230Z,1021.3
2023-05-14T11:52:16.854Z,1021.3
2023-05-14T11:54:16.909Z,1021.3
2023-05-14T11:56:17.024Z,1021.3
2023-05-14T11:58:16.876Z,1021.4
2023-05-14T12:00:16.978Z,1021.3
2023-05-14T12:02:16.937Z,1021.3
2023-05-14T12:04:16.878Z,1021.3
2023-05-14T12:06:16.812Z,1021.4
2023-05-14T12:08:16.815Z,1021.4
2023-05-14T12:10:16.906Z,1021.4
2023-05-14T12:12:17.008Z,1021.4
2023-05-14T12:14:16.995Z,1021.4
2023-05-14T12:16:17.039Z,1021.4
2023-05-14T12:18:24.417Z,1021.5
2023-05-14T12:20:16.731Z,1021.5
2023-05-14T12:22:16.799Z,1021.5
2023-05-14T12:24:16.737Z,1021.5
2023-05-14T12:26:16.736Z,1021.5
2023-05-14T12:28:16.895Z,1021.6
2023-05-14T12:30:21.571Z,1021.6
2023-05-14T12:32:17.004Z,1021.7
2023-05-14T12:34:16.710Z,1021.7
2023-05-14T12:36:21.541Z,1021.6
2023-05-14T12:38:16.884Z,1021.6
2023-05-14T12:40:16.749Z,1021.6
2023-05-14T12:42:17.847Z,1021.6
2023-05-14T12:44:16.949Z,1021.6
2023-05-14T12:46:19.297Z,1021.6
2023-05-14T12:48:16.809Z,1021.6
2023-05-14T12:50:16.947Z,1021.6
2023-05-14T12:52:25.908Z,1021.6
2023-05-14T12:54:16.706Z,1021.6
2023-05-14T12:56:16.714Z,1021.6
2023-05-14T12:58:16.702Z,1021.6
2023-05-14T13:00:16.820Z,1021.5
2023-05-14T13:02:17.396Z,1021.5
2023-05-14T13:04:16.840Z,1021.5
2023-05-14T13:06:16.703Z,1021.5
2023-05-14T13:08:18.088Z,1021.6
2023-05-14T13:10:16.806Z,1021.6
2023-05-14T13:12:17.169Z,1021.6
2023-05-14T13:14:17.831Z,1021.6
2023-05-14T13:16:17.232Z,1021.6
2023-05-14T13:18:16.830Z,1021.6
2023-05-14T13:20:24.650Z,1021.6
2023-05-14T13:22:16.738Z,1021.6
2023-05-14T13:24:17.044Z,1021.7
2023-05-14T13:26:16.704Z,1021.7
2023-05-14T13:28:16.802Z,1021.7
2023-05-14T13:30:16.749Z,1021.7
2023-05-14T13:32:16.788Z,1021.7
2023-05-14T13:34:17.743Z,1021.8
2023-05-14T13:36:16.923Z,1021.7
2023-05-14T13:38:16.837Z,1021.7
2023-05-14T13:40:28.246Z,1021.7
2023-05-14T13:42:27.043Z,1021.8
2023-05-14T13:44:16.757Z,1021.7
2023-05-14T13:46:20.122Z,1021.7
2023-05-14T13:48:16.720Z,1021.8
2023-05-14T13:50:16.877Z,1021.8
2023-05-14T13:52:16.718Z,1021.7
2023-05-14T13:54:16.746Z,1021.7
2023-05-14T13:56:16.761Z,1021.8
2023-05-14T13:58:18.188Z,1021.8
2023-05-14T14:00:17.827Z,1021.7
2023-05-14T14:02:19.310Z,1021.7
2023-05-14T14:04:16.806Z,1021.8
2023-05-14T14:06:16.814Z,1021.8
2023-05-14T14:08:23.174Z,1021.8
2023-05-14T14:10:16.802Z,1021.8
2023-05-14T14:12:16.699Z,1021.8
2023-05-14T14:14:16.656Z,1021.9
2023-05-14T14:16:16.766Z,1021.9
2023-05-14T14:18:16.800Z,1021.9
2023-05-14T14:20:17.823Z,1022
2023-05-14T14:22:19.212Z,1022
2023-05-14T14:24:17.890Z,1022
2023-05-14T14:26:16.871Z,1022
2023-05-14T14:28:16.729Z,1022
2023-05-14T14:30:16.675Z,1022.1
2023-05-14T14:32:19.498Z,1022.1
2023-05-14T14:34:16.703Z,1022.1
2023-05-14T14:36:18.034Z,1022.1
2023-05-14T14:38:17.008Z,1022.1
2023-05-14T14:40:18.147Z,1022.1
2023-05-14T14:42:16.733Z,1022.1
2023-05-14T14:44:17.784Z,1022.1
2023-05-14T14:46:16.667Z,1022.1
2023-05-14T14:48:16.669Z,1022.1
2023-05-14T14:50:16.676Z,1022.1
2023-05-14T14:52:19.590Z,1022
2023-05-14T14:54:16.646Z,1022
2023-05-14T14:56:18.020Z,1022
2023-05-14T14:58:16.583Z,1021.9
2023-05-14T15:00:34.409Z,1021.9
2023-05-14T15:02:16.841Z,1022
2023-05-14T15:04:16.691Z,1022.1
2023-05-14T15:06:16.630Z,1022
2023-05-14T15:08:05.010Z,1022
2023-05-14T15:08:16.715Z,1022.1
2023-05-14T15:10:16.552Z,1022.1
2023-05-14T15:12:16.693Z,1022.1
2023-05-14T15:14:16.790Z,1022.1
2023-05-14T15:16:16.628Z,1022.2
2023-05-14T15:18:16.720Z,1022.2
2023-05-14T15:20:18.178Z,1022.2
2023-05-14T15:22:16.648Z,1022.1
2023-05-14T15:24:16.719Z,1022.1
2023-05-14T15:26:17.760Z,1022.2
2023-05-14T15:28:02.310Z,1022.2
2023-05-14T15:30:16.643Z,1022.2
2023-05-14T15:32:16.734Z,1022.2
2023-05-14T15:34:16.552Z,1022.3
2023-05-14T15:36:16.584Z,1022.3
2023-05-14T15:38:16.599Z,1022.3
2023-05-14T15:40:16.625Z,1022.3
2023-05-14T15:42:16.624Z,1022.3
2023-05-14T15:44:16.741Z,1022.4
2023-05-14T15:46:16.569Z,1022.4
2023-05-14T15:48:16.821Z,1022.3
2023-05-14T15:50:16.607Z,1022.3
2023-05-14T15:52:16.744Z,1022.3
2023-05-14T15:54:16.559Z,1022.3
2023-05-14T15:56:16.544Z,1022.3
2023-05-14T15:58:16.562Z,1022.4
2023-05-14T16:00:16.562Z,1022.3
2023-05-14T16:02:16.535Z,1022.3
2023-05-14T16:04:16.496Z,1022.2
2023-05-14T16:06:16.723Z,1022.2
2023-05-14T16:08:17.526Z,1022.2
2023-05-14T16:10:19.169Z,1022.3
2023-05-14T16:12:17.642Z,1022.3
2023-05-14T16:14:17.862Z,1022.3
2023-05-14T16:16:16.561Z,1022.3
2023-05-14T16:18:16.532Z,1022.4
2023-05-14T16:20:17.968Z,1022.4
2023-05-14T16:22:16.578Z,1022.3
2023-05-14T16:24:16.588Z,1022.3
2023-05-14T16:26:17.934Z,1022.4
2023-05-14T16:28:16.749Z,1022.3
2023-05-14T16:30:17.376Z,1022.3
2023-05-14T16:32:16.751Z,1022.3
2023-05-14T16:34:16.645Z,1022.3
2023-05-14T16:36:16.740Z,1022.3
2023-05-14T16:38:16.671Z,1022.3
2023-05-14T16:40:16.556Z,1022.4
2023-05-14T16:42:16.566Z,1022.4
2023-05-14T16:44:16.461Z,1022.5
2023-05-14T16:46:21.112Z,1022.5
2023-05-14T16:48:16.667Z,1022.5
2023-05-14T16:50:16.525Z,1022.6
2023-05-14T16:52:16.672Z,1022.4
2023-05-14T16:54:16.403Z,1022.5
2023-05-14T16:56:16.462Z,1022.5
2023-05-14T16:58:17.747Z,1022.5
2023-05-14T17:00:16.569Z,1022.5
2023-05-14T17:02:16.580Z,1022.5
2023-05-14T17:04:16.734Z,1022.5
2023-05-14T17:06:16.712Z,1022.5
2023-05-14T17:08:16.455Z,1022.5
2023-05-14T17:10:17.837Z,1022.5
2023-05-14T17:12:16.507Z,1022.5
2023-05-14T17:14:16.582Z,1022.5
2023-05-14T17:16:16.540Z,1022.4
2023-05-14T17:18:16.580Z,1022.5
2023-05-14T17:20:16.999Z,1022.4
2023-05-14T17:22:16.511Z,1022.5
2023-05-14T17:24:16.560Z,1022.5
2023-05-14T17:26:16.440Z,1022.4
2023-05-14T17:28:17.627Z,1022.4
2023-05-14T17:30:16.425Z,1022.5
2023-05-14T17:32:19.008Z,1022.4
2023-05-14T17:34:16.727Z,1022.5
2023-05-14T17:36:17.857Z,1022.5
2023-05-14T17:38:17.565Z,1022.4
2023-05-14T17:40:16.758Z,1022.4
2023-05-14T17:42:16.498Z,1022.3
2023-05-14T17:44:16.479Z,1022.4
2023-05-14T17:46:19.062Z,1022.3
2023-05-14T17:48:16.363Z,1022.2
2023-05-14T17:50:16.458Z,1022.4
2023-05-14T17:52:16.427Z,1022.2
2023-05-14T17:54:16.437Z,1022.3
2023-05-14T17:56:19.068Z,1022.4
2023-05-14T17:58:16.494Z,1022.4
2023-05-14T18:00:16.380Z,1022.4
2023-05-14T18:02:16.524Z,1022.4
2023-05-14T18:04:17.690Z,1022.4
2023-05-14T18:06:16.531Z,1022.4
2023-05-14T18:08:17.468Z,1022.5
2023-05-14T18:10:26.843Z,1022.4
2023-05-14T18:12:16.731Z,1022.5
2023-05-14T18:14:16.383Z,1022.5
2023-05-14T18:16:16.413Z,1022.4
2023-05-14T18:18:16.644Z,1022.5
2023-05-14T18:20:16.449Z,1022.5
2023-05-14T18:22:16.638Z,1022.5
2023-05-14T18:24:16.585Z,1022.5
2023-05-14T18:26:17.503Z,1022.6
2023-05-14T18:28:16.405Z,1022.5
2023-05-14T18:30:22.382Z,1022.5
2023-05-14T18:32:16.316Z,1022.5
2023-05-14T18:34:16.382Z,1022.4
2023-05-14T18:36:16.417Z,1022.5
2023-05-14T18:38:16.453Z,1022.4
2023-05-14T18:40:18.569Z,1022.5
2023-05-14T18:42:16.529Z,1022.5
2023-05-14T18:44:16.310Z,1022.4
2023-05-14T18:46:16.609Z,1022.3
2023-05-14T18:48:17.942Z,1022.4
2023-05-14T18:50:16.406Z,1022.3
2023-05-14T18:52:16.365Z,1022.3
2023-05-14T18:54:16.341Z,1022.3
2023-05-14T18:56:17.701Z,1022.2
2023-05-14T18:57:15.492Z,1022.2
2023-05-14T18:58:16.415Z,1022.3
2023-05-14T19:00:18.390Z,1022.3
2023-05-14T19:02:18.654Z,1022.3
2023-05-14T19:04:17.922Z,1022.4
2023-05-14T19:06:20.714Z,1022.5
2023-05-14T19:08:16.404Z,1022.4
2023-05-14T19:10:17.514Z,1022.4
2023-05-14T19:30:16.953Z,1022.5
2023-05-14T19:30:43.590Z,1022.4
2023-05-14T19:32:43.533Z,1022.4
2023-05-14T19:34:43.677Z,1022.4
2023-05-14T19:36:43.767Z,1022.4
2023-05-14T19:38:43.469Z,1022.5
2023-05-14T19:40:45.141Z,1022.5
2023-05-14T19:42:43.588Z,1022.6
2023-05-14T19:44:43.424Z,1022.6
2023-05-14T19:46:43.456Z,1022.6
2023-05-14T19:48:47.686Z,1022.6
2023-05-14T19:50:43.364Z,1022.6
2023-05-14T19:52:43.455Z,1022.5
2023-05-14T19:54:43.407Z,1022.5
2023-05-14T19:56:43.542Z,1022.5
2023-05-14T19:58:43.441Z,1022.5
2023-05-14T20:00:44.699Z,1022.5
2023-05-14T20:02:44.552Z,1022.5
2023-05-14T20:14:55.339Z,1022.5
2023-05-14T20:16:11.028Z,1022.5
2023-05-14T20:18:11.388Z,1022.4
2023-05-14T20:20:11.417Z,1022.4
2023-05-14T20:22:12.666Z,1022.4
2023-05-14T20:24:09.786Z,1022.4
2023-05-14T20:26:09.867Z,1022.4
2023-05-14T20:28:09.619Z,1022.4
2023-05-14T20:30:09.802Z,1022.5
2023-05-14T20:32:10.257Z,1022.4
2023-05-14T20:34:09.679Z,1022.4
2023-05-14T20:36:09.993Z,1022.5
2023-05-14T20:38:09.672Z,1022.5
2023-05-14T20:40:09.880Z,1022.5
2023-05-14T20:42:10.749Z,1022.5
2023-05-14T20:44:09.960Z,1022.5
2023-05-14T20:46:10.744Z,1022.5
2023-05-14T20:48:09.684Z,1022.5
2023-05-14T20:50:20.360Z,1022.5
2023-05-14T20:52:09.643Z,1022.6
2023-05-14T20:54:09.669Z,1022.6
2023-05-14T20:56:09.641Z,1022.6
2023-05-14T20:58:09.830Z,1022.6
2023-05-14T21:00:10.642Z,1022.5
2023-05-14T21:02:10.992Z,1022.5
2023-05-14T21:04:09.876Z,1022.5
2023-05-14T21:06:09.711Z,1022.5
2023-05-14T21:08:09.779Z,1022.5
2023-05-14T21:10:09.788Z,1022.5
2023-05-14T21:12:09.808Z,1022.5
2023-05-14T21:14:09.771Z,1022.6
2023-05-14T21:16:09.705Z,1022.6
2023-05-14T21:18:09.736Z,1022.6
2023-05-14T21:20:09.707Z,1022.6
2023-05-14T21:22:10.850Z,1022.6
2023-05-14T21:24:09.711Z,1022.6
2023-05-14T21:26:09.762Z,1022.7
2023-05-14T21:28:09.724Z,1022.7
2023-05-14T21:30:09.643Z,1022.8
2023-05-14T21:32:10.735Z,1022.8
2023-05-14T21:34:09.648Z,1022.8
2023-05-14T21:36:09.681Z,1022.8
2023-05-14T21:38:09.656Z,1022.8
2023-05-14T21:40:09.652Z,1022.8
2023-05-14T21:42:09.704Z,1022.8
2023-05-14T21:44:09.639Z,1022.8
2023-05-14T21:46:09.682Z,1022.8
2023-05-14T21:48:09.706Z,1022.8
2023-05-14T21:50:09.653Z,1022.7
2023-05-14T21:52:10.942Z,1022.7
2023-05-14T21:54:13.002Z,1022.8
2023-05-14T21:56:09.720Z,1022.8
2023-05-14T21:58:09.575Z,1022.9
2023-05-14T22:00:11.351Z,1022.9
2023-05-14T22:02:10.282Z,1022.9
2023-05-14T22:04:10.755Z,1022.9
2023-05-14T22:06:09.682Z,1022.9
2023-05-14T22:08:09.749Z,1023
2023-05-14T22:10:09.564Z,1022.9
2023-05-14T22:12:09.623Z,1022.9
2023-05-14T22:14:10.774Z,1023
2023-05-14T22:16:13.141Z,1023
2023-05-14T22:18:09.613Z,1023
2023-05-14T22:20:09.865Z,1023
2023-05-14T22:22:11.955Z,1023
2023-05-14T22:24:11.100Z,1022.9
2023-05-14T22:26:12.126Z,1022.9
2023-05-14T22:28:09.606Z,1023
2023-05-14T22:30:10.751Z,1023
2023-05-14T22:32:09.545Z,1022.9
2023-05-14T22:34:10.997Z,1022.9
2023-05-14T22:36:09.713Z,1022.9
2023-05-14T22:38:15.051Z,1022.9
2023-05-14T22:40:09.773Z,1022.9
2023-05-14T22:42:09.606Z,1023
2023-05-14T22:44:10.347Z,1023
2023-05-14T22:46:09.602Z,1023
2023-05-14T22:48:09.637Z,1023.1
2023-05-14T22:50:09.566Z,1023
2023-05-14T22:52:09.755Z,1023
2023-05-14T22:54:09.776Z,1023
2023-05-14T22:56:09.879Z,1022.9
2023-05-14T22:58:09.651Z,1022.9
2023-05-14T23:00:09.863Z,1022.9
2023-05-14T23:02:09.684Z,1022.9
2023-05-14T23:04:09.839Z,1023
2023-05-14T23:06:09.667Z,1023
2023-05-14T23:08:09.598Z,1023
2023-05-14T23:10:10.941Z,1023
2023-05-14T23:12:09.615Z,1023
2023-05-14T23:14:09.580Z,1023
2023-05-14T23:16:09.512Z,1023
2023-05-14T23:18:09.707Z,1023
2023-05-14T23:20:09.568Z,1023.1
2023-05-14T23:22:09.566Z,1023.1
2023-05-14T23:24:12.512Z,1023.1
2023-05-14T23:26:10.548Z,1023.1
2023-05-14T23:28:10.803Z,1023.1
2023-05-14T23:30:11.383Z,1023
2023-05-14T23:32:09.747Z,1023
2023-05-14T23:34:09.597Z,1023
2023-05-14T23:36:12.152Z,1023.1
2023-05-14T23:38:10.724Z,1023.1
2023-05-14T23:40:10.979Z,1023.1
2023-05-14T23:42:12.040Z,1023.1
2023-05-14T23:44:09.539Z,1023
2023-05-14T23:46:09.682Z,1023
2023-05-14T23:48:13.975Z,1023
2023-05-14T23:50:09.686Z,1023
2023-05-14T23:52:09.722Z,1023
2023-05-14T23:54:09.680Z,1023
2023-05-14T23:56:09.693Z,1023.1
2023-05-14T23:58:15.189Z,1023.1
